Carolina Forest, South Carolina
Current Conditions -  °F | °C
As of 8:45 AM on Tuesday 27 Jan 2015 (Local Time) from KMYR Reporting Station
Clear Clear  
Wind Chill: 32°   Ceiling: Unl
Heat Index: 39°   Visibility: 10mi
Dew Point: 25°   Wind: 12mph
Humidity: 56%   Direction: 320°NW
Pressure: 29.84"   Gusts: NA
Location:  33.7109°N, 78.9964°W
Report Text: KMYR 271345Z 32010KT 10SM CLR 04/M04 A2984
Loading
Personal Weather Stations






























Interactive Weather Map New forecast layout! Learn more

10-Day Weather Forecast

Advertisements
Track Severe Weather on mobile